Startpagina
METAR-TAF:

METAR-TAF

Vliegvelden :

Nouméa / La Tontouta, Nieuw-Caledonië

breedte: 22-01S, lengte: 166-13E, hoogte: 16 m

Actueel weer

Dit bericht is 41 minuten geleden gemaakt, om 05:30 UTC
Wind 6 kt uit het westen, variërend tussen het zuidwesten en het westnoordwesten
Temperatuur 29°C
Vochtigheid 66%
Druk 1011 hPa
Zicht 10 km of meer
Weinig wolken op 4200 ft
Gebroken wolken op 7000 ft

METAR: NWWW 240530Z AUTO 26006KT 220V300 9999 FEW042 BKN070 29/22 Q1011 TEMPO SHRA FEW020TCU

Tijdstip: 17:11 (06:11 UTC)

Verwachting

Dit bericht is 1 uur en het 11 minuten geleden gemaakt, om 05:00 UTC
Verwachting geldig van 24 om 06 UTC tot 25 om 06 UTC
Wind 6 kt uit het westzuidwesten
Zicht 10 km of meer
Weinig wolken op 3500 ft
Verspreide wolken op 4500 ft
Tijdelijke
van 24 om 06 UTC tot 24 om 08 UTC
Weinig wolken op 2000 ft, Stapelwolken.
regenbuien

TAF: NWWW 240500Z 2406/2506 25006KT 9999 FEW035 SCT045 TEMPO 2406/2408 SHRA FEW020TCU

Waarnemingen en weersverwachtingen van meer dan 4000 vliegvelden (METAR en TAF).

De beschikbare stations zijn de gele en rode punten op de kaart.

Ga met uw muis naar het station om de naam te zien.

Klik dan om waarnemingen en weersverwachtingen te zien.

kaart wijzigen: klik op de groene knoppen met een zwart kruis om in te zoomen, op de groene knop met een streepje om uit te zoomen of op de groene pijlen voor aangrenzende kaarten.


METAR-TAF: